createdAt,value
2023-02-08T00:00:08.221Z,0.00
2023-02-08T00:01:08.359Z,0.00
2023-02-08T00:02:08.240Z,0.00
2023-02-08T00:03:08.380Z,0.00
2023-02-08T00:04:08.348Z,0.00
2023-02-08T00:05:08.421Z,0.00
2023-02-08T00:06:08.303Z,0.00
2023-02-08T00:07:08.433Z,0.00
2023-02-08T00:08:08.305Z,0.00
2023-02-08T00:09:08.449Z,0.00
2023-02-08T00:10:08.326Z,0.00
2023-02-08T00:11:08.469Z,0.00
2023-02-08T00:12:08.364Z,0.00
2023-02-08T00:13:08.493Z,0.00
2023-02-08T00:14:08.505Z,0.00
2023-02-08T00:15:08.517Z,0.00
2023-02-08T00:16:08.665Z,0.00
2023-02-08T00:17:08.536Z,0.00
2023-02-08T00:18:08.432Z,0.00
2023-02-08T00:19:08.560Z,0.00
2023-02-08T00:20:08.565Z,0.00
2023-02-08T00:21:08.577Z,0.00
2023-02-08T00:22:08.459Z,0.00
2023-02-08T00:23:08.613Z,0.00
2023-02-08T00:24:08.491Z,0.00
2023-02-08T00:25:08.629Z,0.00
2023-02-08T00:26:08.499Z,0.00
2023-02-08T00:27:08.649Z,0.00
2023-02-08T00:28:09.555Z,0.00
2023-02-08T00:29:08.666Z,0.00
2023-02-08T00:30:08.702Z,0.00
2023-02-08T00:31:08.789Z,0.00
2023-02-08T00:32:08.585Z,0.00
2023-02-08T00:33:08.708Z,0.00
2023-02-08T00:34:08.589Z,0.00
2023-02-08T00:35:08.729Z,0.00
2023-02-08T00:36:08.612Z,0.00
2023-02-08T00:38:08.625Z,0.00
2023-02-08T00:39:08.773Z,0.00
2023-02-08T00:40:08.654Z,0.00
2023-02-08T00:41:08.792Z,0.00
2023-02-08T00:42:08.673Z,0.00
2023-02-08T00:43:08.694Z,0.00
2023-02-08T00:44:08.822Z,0.00
2023-02-08T00:45:08.837Z,0.00
2023-02-08T00:46:08.730Z,0.00
2023-02-08T00:47:08.856Z,0.00
2023-02-08T00:48:08.871Z,0.00
2023-02-08T00:49:08.762Z,0.00
2023-02-08T00:50:08.890Z,0.00
2023-02-08T00:51:08.897Z,0.00
2023-02-08T00:52:08.807Z,0.00
2023-02-08T00:53:08.923Z,0.00
2023-02-08T00:54:08.932Z,0.00
2023-02-08T00:55:08.960Z,0.00
2023-02-08T00:56:08.828Z,0.00
2023-02-08T00:57:08.967Z,0.00
2023-02-08T00:58:08.974Z,0.00
2023-02-08T00:59:08.857Z,0.00
2023-02-08T01:00:08.866Z,0.00
2023-02-08T01:01:09.106Z,0.00
2023-02-08T01:02:09.001Z,0.00
2023-02-08T01:03:09.031Z,0.00
2023-02-08T01:04:09.042Z,0.00
2023-02-08T01:05:08.924Z,0.00
2023-02-08T01:06:09.067Z,0.00
2023-02-08T01:07:09.074Z,0.00
2023-02-08T01:08:08.958Z,0.00
2023-02-08T01:09:08.975Z,0.00
2023-02-08T01:10:09.109Z,0.00
2023-02-08T01:11:09.126Z,0.00
2023-02-08T01:12:08.995Z,0.00
2023-02-08T01:13:09.140Z,0.00
2023-02-08T01:14:09.148Z,0.00
2023-02-08T01:15:09.046Z,0.00
2023-02-08T01:16:09.067Z,0.00
2023-02-08T01:17:09.183Z,0.00
2023-02-08T01:18:09.069Z,0.00
2023-02-08T01:19:09.217Z,0.00
2023-02-08T01:20:09.101Z,0.00
2023-02-08T01:21:09.224Z,0.00
2023-02-08T01:22:09.103Z,0.00
2023-02-08T01:23:09.345Z,0.00
2023-02-08T01:24:09.257Z,0.00
2023-02-08T01:25:09.268Z,0.00
2023-02-08T01:26:09.148Z,0.00
2023-02-08T01:27:09.288Z,0.00
2023-02-08T01:28:09.218Z,0.00
2023-02-08T01:29:09.314Z,0.00
2023-02-08T01:30:09.203Z,0.00
2023-02-08T01:31:09.259Z,0.00
2023-02-08T01:32:09.224Z,0.00
2023-02-08T01:33:09.364Z,0.00
2023-02-08T01:34:09.230Z,0.00
2023-02-08T01:35:09.250Z,0.00
2023-02-08T01:36:09.251Z,0.00
2023-02-08T01:37:09.398Z,0.00
2023-02-08T01:38:09.275Z,0.00
2023-02-08T01:39:09.419Z,0.00
2023-02-08T01:40:09.427Z,0.00
2023-02-08T01:41:09.445Z,0.00
2023-02-08T01:42:09.331Z,0.00
2023-02-08T01:43:09.461Z,0.00
2023-02-08T01:44:09.480Z,0.00
2023-02-08T01:45:09.357Z,0.00
2023-02-08T01:46:09.389Z,0.00
2023-02-08T01:47:09.517Z,0.00
2023-02-08T01:48:09.408Z,0.00
2023-02-08T01:49:09.532Z,0.00
2023-02-08T01:50:09.408Z,0.00
2023-02-08T01:51:09.549Z,0.00
2023-02-08T01:52:09.426Z,0.00
2023-02-08T01:53:09.574Z,0.00
2023-02-08T01:54:09.462Z,0.00
2023-02-08T01:55:09.593Z,0.00
2023-02-08T01:56:09.470Z,0.00
2023-02-08T01:57:09.610Z,0.00
2023-02-08T01:58:09.626Z,0.00
2023-02-08T01:59:09.529Z,0.00
2023-02-08T02:00:09.520Z,0.00
2023-02-08T02:01:09.570Z,0.00
2023-02-08T02:02:09.583Z,0.00
2023-02-08T02:03:09.681Z,0.00
2023-02-08T02:04:09.626Z,0.00
2023-02-08T02:05:09.582Z,0.00
2023-02-08T02:06:09.710Z,0.00
2023-02-08T02:07:09.718Z,0.00
2023-02-08T02:08:09.729Z,0.00
2023-02-08T02:09:09.744Z,0.00
2023-02-08T02:10:09.639Z,0.00
2023-02-08T02:11:09.762Z,0.00
2023-02-08T02:12:09.646Z,0.00
2023-02-08T02:13:09.795Z,0.00
2023-02-08T02:14:09.664Z,0.00
2023-02-08T02:15:09.803Z,0.00
2023-02-08T02:16:09.761Z,0.00
2023-02-08T02:17:09.829Z,0.00
2023-02-08T02:18:09.702Z,0.00
2023-02-08T02:19:09.850Z,0.00
2023-02-08T02:20:09.855Z,0.00
2023-02-08T02:21:09.871Z,0.00
2023-02-08T02:22:09.880Z,0.00
2023-02-08T02:23:09.891Z,0.00
2023-02-08T02:24:09.903Z,0.00
2023-02-08T02:25:09.914Z,0.00
2023-02-08T02:26:09.799Z,0.00
2023-02-08T02:27:09.935Z,0.00
2023-02-08T02:28:09.849Z,0.00
2023-02-08T02:29:09.959Z,0.00
2023-02-08T02:30:09.847Z,0.00
2023-02-08T02:31:09.977Z,0.00
2023-02-08T02:32:09.862Z,0.00
2023-02-08T02:33:10.008Z,0.00
2023-02-08T02:34:09.880Z,0.00
2023-02-08T02:35:10.019Z,0.00
2023-02-08T02:36:09.916Z,0.00
2023-02-08T02:37:09.915Z,0.00
2023-02-08T02:38:10.049Z,0.00
2023-02-08T02:39:10.064Z,0.00
2023-02-08T02:40:09.953Z,0.00
2023-02-08T02:41:09.961Z,0.00
2023-02-08T02:42:10.101Z,0.00
2023-02-08T02:43:10.102Z,0.00
2023-02-08T02:44:10.005Z,0.00
2023-02-08T02:45:10.002Z,0.00
2023-02-08T02:46:10.111Z,0.00
2023-02-08T02:47:10.149Z,0.00
2023-02-08T02:48:10.025Z,0.00
2023-02-08T02:49:10.174Z,0.00
2023-02-08T02:50:10.049Z,0.00
2023-02-08T02:51:10.195Z,0.00
2023-02-08T02:52:10.068Z,0.00
2023-02-08T02:53:10.214Z,0.00
2023-02-08T02:54:10.106Z,0.00
2023-02-08T02:55:10.237Z,0.00
2023-02-08T02:56:10.137Z,0.00
2023-02-08T02:57:10.141Z,0.00
2023-02-08T02:58:10.138Z,0.00
2023-02-08T02:59:10.284Z,0.00
2023-02-08T03:00:10.191Z,0.00
2023-02-08T03:01:10.249Z,0.00
2023-02-08T03:02:10.313Z,0.00
2023-02-08T03:03:10.322Z,0.00
2023-02-08T03:04:10.263Z,0.00
2023-02-08T03:05:10.346Z,0.00
2023-02-08T03:06:10.240Z,0.00
2023-02-08T03:07:10.365Z,0.00
2023-02-08T03:08:10.376Z,0.00
2023-02-08T03:09:10.387Z,0.00
2023-02-08T03:10:10.397Z,0.00
2023-02-08T03:11:10.293Z,0.00
2023-02-08T03:12:10.294Z,0.00
2023-02-08T03:13:10.429Z,0.00
2023-02-08T03:14:10.311Z,0.00
2023-02-08T03:15:10.451Z,0.00
2023-02-08T03:16:10.471Z,0.00
2023-02-08T03:17:10.354Z,0.00
2023-02-08T03:18:10.393Z,0.00
2023-02-08T03:19:10.495Z,0.00
2023-02-08T03:20:10.376Z,0.00
2023-02-08T03:21:10.520Z,0.00
2023-02-08T03:22:10.403Z,0.00
2023-02-08T03:23:10.407Z,0.00
2023-02-08T03:24:10.552Z,0.00
2023-02-08T03:25:10.559Z,0.00
2023-02-08T03:26:10.589Z,0.00
2023-02-08T03:27:10.582Z,0.00
2023-02-08T03:28:10.613Z,0.00
2023-02-08T03:29:10.494Z,0.00
2023-02-08T03:30:10.484Z,0.00
2023-02-08T03:31:10.714Z,0.00
2023-02-08T03:32:10.513Z,0.00
2023-02-08T03:33:10.647Z,0.00
2023-02-08T03:34:10.525Z,0.00
2023-02-08T03:35:10.680Z,0.00
2023-02-08T03:36:10.680Z,0.00
2023-02-08T03:37:10.689Z,0.00
2023-02-08T03:38:10.702Z,0.00
2023-02-08T03:39:10.594Z,0.00
2023-02-08T03:40:10.720Z,0.00
2023-02-08T03:41:10.734Z,0.00
2023-02-08T03:42:10.622Z,0.00
2023-02-08T03:43:10.754Z,0.00
2023-02-08T03:44:10.764Z,0.00
2023-02-08T03:45:10.645Z,0.00
2023-02-08T03:46:10.877Z,0.00
2023-02-08T03:47:10.677Z,0.00
2023-02-08T03:48:10.813Z,0.00
2023-02-08T03:49:10.818Z,0.00
2023-02-08T03:50:10.712Z,0.00
2023-02-08T03:51:10.842Z,0.00
2023-02-08T03:52:10.718Z,0.00
2023-02-08T03:53:10.757Z,0.00
2023-02-08T03:54:10.874Z,0.00
2023-02-08T03:55:10.750Z,0.00
2023-02-08T03:56:10.892Z,0.00
2023-02-08T03:57:10.768Z,0.00
2023-02-08T03:58:10.916Z,0.00
2023-02-08T03:59:10.924Z,0.00
2023-02-08T04:00:10.938Z,0.00
2023-02-08T04:01:10.854Z,0.00
2023-02-08T04:02:10.980Z,0.00
2023-02-08T04:03:10.963Z,0.00
2023-02-08T04:04:10.976Z,0.00
2023-02-08T04:05:10.865Z,0.00
2023-02-08T04:06:11.002Z,0.00
2023-02-08T04:07:10.950Z,0.00
2023-02-08T04:08:11.021Z,0.00
2023-02-08T04:09:11.028Z,0.00
2023-02-08T04:10:11.040Z,0.00
2023-02-08T04:11:11.051Z,0.00
2023-02-08T04:12:11.074Z,0.00
2023-02-08T04:13:10.946Z,0.00
2023-02-08T04:14:11.081Z,0.00
2023-02-08T04:15:11.092Z,0.00
2023-02-08T04:16:11.174Z,0.00
2023-02-08T04:17:10.986Z,0.00
2023-02-08T04:18:11.019Z,0.00
2023-02-08T04:19:11.139Z,0.00
2023-02-08T04:20:11.174Z,0.00
2023-02-08T04:21:11.024Z,0.00
2023-02-08T04:22:11.170Z,0.00
2023-02-08T04:23:11.082Z,0.00
2023-02-08T04:24:11.074Z,0.00
2023-02-08T04:25:11.200Z,0.00
2023-02-08T04:26:11.213Z,0.00
2023-02-08T04:27:11.092Z,0.00
2023-02-08T04:28:11.268Z,0.00
2023-02-08T04:29:11.126Z,0.00
2023-02-08T04:30:11.125Z,0.00
2023-02-08T04:31:11.257Z,0.00
2023-02-08T04:32:11.162Z,0.00
2023-02-08T04:33:11.171Z,0.00
2023-02-08T04:34:11.170Z,0.00
2023-02-08T04:35:11.190Z,0.00
2023-02-08T04:36:11.322Z,0.00
2023-02-08T04:37:11.210Z,0.00
2023-02-08T04:38:11.212Z,0.00
2023-02-08T04:39:11.259Z,0.00
2023-02-08T04:40:11.367Z,0.00
2023-02-08T04:41:11.265Z,0.00
2023-02-08T04:42:11.269Z,0.00
2023-02-08T04:43:11.290Z,0.00
2023-02-08T04:44:11.285Z,0.00
2023-02-08T04:45:11.301Z,0.00
2023-02-08T04:46:11.356Z,0.00
2023-02-08T04:47:11.325Z,0.00
2023-02-08T04:48:12.052Z,0.00
2023-02-08T04:49:11.339Z,0.00
2023-02-08T04:50:11.365Z,0.00
2023-02-08T04:51:11.486Z,0.00
2023-02-08T04:52:11.498Z,0.00
2023-02-08T04:53:11.382Z,0.00
2023-02-08T04:54:11.522Z,0.00
2023-02-08T04:55:11.541Z,0.00
2023-02-08T04:56:11.541Z,0.00
2023-02-08T04:57:11.552Z,0.00
2023-02-08T04:58:11.565Z,0.00
2023-02-08T04:59:11.449Z,0.00
2023-02-08T05:00:11.588Z,0.00
2023-02-08T05:01:11.593Z,0.00
2023-02-08T05:02:11.535Z,0.00
2023-02-08T05:03:11.613Z,0.00
2023-02-08T05:04:11.492Z,0.00
2023-02-08T05:05:11.543Z,0.00
2023-02-08T05:06:11.646Z,0.00
2023-02-08T05:07:11.655Z,0.00
2023-02-08T05:08:11.668Z,0.00
2023-02-08T05:09:11.572Z,0.00
2023-02-08T05:10:11.690Z,0.00
2023-02-08T05:11:11.696Z,0.00
2023-02-08T05:12:11.706Z,0.00
2023-02-08T05:13:11.589Z,0.00
2023-02-08T05:14:11.731Z,0.00
2023-02-08T05:15:11.740Z,0.00
2023-02-08T05:16:11.796Z,0.00
2023-02-08T05:17:11.628Z,0.00
2023-02-08T05:18:11.649Z,0.00
2023-02-08T05:19:11.679Z,0.00
2023-02-08T05:20:11.669Z,0.00
2023-02-08T05:21:11.801Z,0.00
2023-02-08T05:22:11.815Z,0.00
2023-02-08T05:23:11.823Z,0.00
2023-02-08T05:24:11.836Z,0.00
2023-02-08T05:25:11.783Z,0.00
2023-02-08T05:26:11.857Z,0.00
2023-02-08T05:27:11.757Z,0.00
2023-02-08T05:28:11.924Z,0.00
2023-02-08T05:29:11.752Z,0.00
2023-02-08T05:30:11.901Z,0.00
2023-02-08T05:31:11.908Z,0.00
2023-02-08T05:32:11.925Z,0.00
2023-02-08T05:33:11.796Z,0.00
2023-02-08T05:34:11.942Z,0.00
2023-02-08T05:35:11.837Z,0.00
2023-02-08T05:36:11.961Z,0.00
2023-02-08T05:37:11.849Z,0.00
2023-02-08T05:38:11.985Z,0.00
2023-02-08T05:39:11.859Z,0.00
2023-02-08T05:40:11.877Z,0.00
2023-02-08T05:41:12.016Z,0.00
2023-02-08T05:42:12.025Z,0.00
2023-02-08T05:43:12.033Z,0.00
2023-02-08T05:44:12.054Z,0.00
2023-02-08T05:45:11.919Z,0.00
2023-02-08T05:46:11.953Z,0.00
2023-02-08T05:47:11.953Z,0.00
2023-02-08T05:48:12.086Z,0.00
2023-02-08T05:49:12.095Z,0.00
2023-02-08T05:50:11.975Z,0.00
2023-02-08T05:51:12.000Z,0.00
2023-02-08T05:52:12.137Z,0.00
2023-02-08T05:53:12.140Z,0.00
2023-02-08T05:54:12.033Z,0.00
2023-02-08T05:55:12.159Z,0.00
2023-02-08T05:56:12.172Z,0.00
2023-02-08T05:57:12.049Z,0.00
2023-02-08T05:58:12.198Z,0.00
2023-02-08T05:59:12.102Z,0.00
2023-02-08T06:00:12.086Z,0.00
2023-02-08T06:01:12.224Z,0.00
2023-02-08T06:02:12.235Z,0.00
2023-02-08T06:03:12.190Z,0.00
2023-02-08T06:04:12.179Z,0.00
2023-02-08T06:05:12.162Z,0.00
2023-02-08T06:06:12.279Z,0.00
2023-02-08T06:07:12.155Z,0.00
2023-02-08T06:08:12.297Z,0.00
2023-02-08T06:09:12.310Z,0.00
2023-02-08T06:10:12.189Z,0.00
2023-02-08T06:11:12.205Z,0.00
2023-02-08T06:12:12.341Z,0.00
2023-02-08T06:13:12.350Z,0.00
2023-02-08T06:14:12.361Z,0.00
2023-02-08T06:15:12.267Z,0.00
2023-02-08T06:16:12.411Z,0.00
2023-02-08T06:17:12.293Z,0.00
2023-02-08T06:18:12.404Z,0.00
2023-02-08T06:19:12.279Z,0.00
2023-02-08T06:20:12.316Z,0.00
2023-02-08T06:21:12.392Z,0.00
2023-02-08T06:22:12.449Z,0.00
2023-02-08T06:23:12.457Z,0.00
2023-02-08T06:24:12.477Z,0.00
2023-02-08T06:25:12.344Z,0.00
2023-02-08T06:26:12.490Z,0.00
2023-02-08T06:27:12.385Z,0.00
2023-02-08T06:28:12.537Z,0.00
2023-02-08T06:29:12.386Z,0.00
2023-02-08T06:30:12.418Z,0.00
2023-02-08T06:31:12.433Z,0.00
2023-02-08T06:32:12.581Z,0.00
2023-02-08T06:33:15.153Z,0.00
2023-02-08T06:34:12.575Z,0.00
2023-02-08T06:35:12.472Z,0.00
2023-02-08T06:36:12.611Z,0.00
2023-02-08T06:37:12.497Z,0.00
2023-02-08T06:38:12.622Z,0.00
2023-02-08T06:39:12.628Z,0.00
2023-02-08T06:40:12.638Z,0.00
2023-02-08T06:41:12.649Z,0.00
2023-02-08T06:42:12.534Z,0.00
2023-02-08T06:43:12.537Z,0.00
2023-02-08T06:44:12.686Z,0.00
2023-02-08T06:45:13.750Z,0.00
2023-02-08T06:46:12.761Z,0.00
2023-02-08T06:47:12.611Z,0.00
2023-02-08T06:48:12.605Z,0.00
2023-02-08T06:49:12.733Z,0.00
2023-02-08T06:50:12.747Z,0.00
2023-02-08T06:51:12.764Z,0.00
2023-02-08T06:52:12.766Z,0.00
2023-02-08T06:53:12.702Z,0.00
2023-02-08T06:54:12.786Z,0.00
2023-02-08T06:55:12.672Z,0.00
2023-02-08T06:56:12.860Z,0.00
2023-02-08T06:57:12.761Z,0.00
2023-02-08T06:58:12.831Z,0.00
2023-02-08T06:59:12.709Z,0.00
2023-02-08T07:00:12.882Z,0.00
2023-02-08T07:01:12.811Z,0.00
2023-02-08T07:02:12.937Z,0.00
2023-02-08T07:03:12.886Z,0.00
2023-02-08T07:04:12.893Z,0.00
2023-02-08T07:05:12.918Z,0.00
2023-02-08T07:06:12.918Z,0.00
2023-02-08T07:07:12.792Z,0.00
2023-02-08T07:08:12.935Z,0.00
2023-02-08T07:09:12.820Z,0.00
2023-02-08T07:10:12.959Z,0.00
2023-02-08T07:11:12.852Z,0.00
2023-02-08T07:12:12.984Z,0.00
2023-02-08T07:13:12.881Z,0.00
2023-02-08T07:15:13.013Z,0.00
2023-02-08T07:16:13.068Z,0.00
2023-02-08T07:17:13.042Z,0.00
2023-02-08T07:18:13.044Z,0.00
2023-02-08T07:19:13.004Z,0.00
2023-02-08T07:20:13.071Z,0.00
2023-02-08T07:21:13.075Z,0.00
2023-02-08T07:22:12.970Z,0.00
2023-02-08T07:23:12.970Z,0.00
2023-02-08T07:24:13.107Z,0.00
2023-02-08T07:25:12.982Z,0.00
2023-02-08T07:26:12.998Z,0.00
2023-02-08T07:27:13.018Z,0.00
2023-02-08T07:28:13.068Z,0.00
2023-02-08T07:29:13.042Z,0.00
2023-02-08T07:30:13.174Z,0.00
2023-02-08T07:31:13.048Z,0.00
2023-02-08T07:32:13.128Z,0.00
2023-02-08T07:33:13.089Z,0.00
2023-02-08T07:34:13.219Z,0.00
2023-02-08T07:35:13.112Z,0.00
2023-02-08T07:36:13.238Z,0.00
2023-02-08T07:37:13.120Z,0.00
2023-02-08T07:38:13.256Z,0.00
2023-02-08T07:39:13.168Z,0.00
2023-02-08T07:40:13.282Z,0.00
2023-02-08T07:41:13.188Z,0.00
2023-02-08T07:42:13.186Z,0.00
2023-02-08T07:43:13.191Z,0.00
2023-02-08T07:44:13.326Z,0.00
2023-02-08T07:45:13.221Z,0.00
2023-02-08T07:46:13.373Z,0.00
2023-02-08T07:47:13.360Z,0.00
2023-02-08T07:48:13.267Z,0.00
2023-02-08T07:49:13.249Z,0.00
2023-02-08T07:50:13.400Z,0.00
2023-02-08T07:51:13.298Z,0.00
2023-02-08T07:52:13.421Z,0.00
2023-02-08T07:53:13.425Z,0.00
2023-02-08T07:54:13.309Z,0.00
2023-02-08T07:55:13.445Z,0.00
2023-02-08T07:56:13.465Z,0.00
2023-02-08T07:57:13.495Z,0.00
2023-02-08T07:58:13.480Z,0.00
2023-02-08T07:59:13.377Z,0.00
2023-02-08T08:00:13.377Z,0.00
2023-02-08T08:01:21.923Z,0.00
2023-02-08T08:02:13.389Z,0.00
2023-02-08T08:03:13.537Z,0.00
2023-02-08T08:04:13.618Z,0.00
2023-02-08T08:05:13.430Z,0.00
2023-02-08T08:06:13.569Z,0.00
2023-02-08T08:07:13.582Z,0.00
2023-02-08T08:08:13.461Z,0.00
2023-02-08T08:09:13.600Z,0.00
2023-02-08T08:10:13.483Z,0.00
2023-02-08T08:11:13.505Z,0.00
2023-02-08T08:12:13.637Z,0.00
2023-02-08T08:13:13.651Z,0.00
2023-02-08T08:14:13.541Z,0.00
2023-02-08T08:15:13.537Z,0.00
2023-02-08T08:16:13.749Z,0.00
2023-02-08T08:17:13.560Z,0.00
2023-02-08T08:18:13.699Z,0.00
2023-02-08T08:19:13.711Z,0.00
2023-02-08T08:20:13.614Z,0.00
2023-02-08T08:21:13.731Z,0.00
2023-02-08T08:22:13.608Z,0.00
2023-02-08T08:23:13.755Z,0.00
2023-02-08T08:24:13.769Z,0.00
2023-02-08T08:25:13.779Z,0.00
2023-02-08T08:26:13.805Z,0.00
2023-02-08T08:27:13.685Z,0.00
2023-02-08T08:28:13.797Z,4.00
2023-02-08T08:29:13.828Z,0.00
2023-02-08T08:30:13.721Z,0.00
2023-02-08T08:31:13.904Z,4.00
2023-02-08T08:32:13.723Z,4.00
2023-02-08T08:33:13.734Z,4.00
2023-02-08T08:34:13.875Z,8.00
2023-02-08T08:35:13.885Z,8.00
2023-02-08T08:36:13.800Z,8.00
2023-02-08T08:37:13.910Z,12.00
2023-02-08T08:38:13.937Z,12.00
2023-02-08T08:39:13.929Z,20.00
2023-02-08T08:40:13.811Z,24.00
2023-02-08T08:41:13.952Z,28.00
2023-02-08T08:42:13.838Z,32.00
2023-02-08T08:43:13.841Z,36.00
2023-02-08T08:44:13.852Z,44.00
2023-02-08T08:45:13.999Z,52.00
2023-02-08T08:46:13.932Z,60.00
2023-02-08T08:47:13.887Z,72.00
2023-02-08T08:48:13.927Z,88.00
2023-02-08T08:49:14.044Z,100.00
2023-02-08T08:50:13.921Z,120.00
2023-02-08T08:51:14.122Z,136.00
2023-02-08T08:52:13.948Z,164.00
2023-02-08T08:53:13.972Z,196.00
2023-02-08T08:54:14.097Z,240.00
2023-02-08T08:55:14.108Z,288.00
2023-02-08T08:56:13.993Z,328.00
2023-02-08T08:57:14.129Z,368.00
2023-02-08T08:58:14.012Z,408.00
2023-02-08T08:59:14.153Z,448.00
2023-02-08T09:00:14.166Z,456.00
2023-02-08T09:01:14.284Z,448.00
2023-02-08T09:02:14.063Z,480.00
2023-02-08T09:03:14.108Z,584.00
2023-02-08T09:04:14.078Z,632.00
2023-02-08T09:05:14.216Z,604.00
2023-02-08T09:06:14.105Z,624.00
2023-02-08T09:07:14.117Z,664.00
2023-02-08T09:08:14.254Z,720.00
2023-02-08T09:09:14.260Z,788.00
2023-02-08T09:10:14.151Z,860.00
2023-02-08T09:11:14.288Z,932.00
2023-02-08T09:12:14.192Z,996.00
2023-02-08T09:13:14.299Z,1052.00
2023-02-08T09:14:14.186Z,1100.00
2023-02-08T09:15:14.329Z,1164.00
2023-02-08T09:16:14.393Z,1236.00
2023-02-08T09:17:14.220Z,1312.00
2023-02-08T09:18:14.224Z,1388.00
2023-02-08T09:19:14.371Z,1464.00
2023-02-08T09:20:14.242Z,1524.00
2023-02-08T09:21:14.397Z,1580.00
2023-02-08T09:22:14.295Z,1636.00
2023-02-08T09:23:14.293Z,1692.00
2023-02-08T09:24:14.286Z,1748.00
2023-02-08T09:25:14.436Z,1816.00
2023-02-08T09:26:14.329Z,1876.00
2023-02-08T09:27:14.358Z,1940.00
2023-02-08T09:28:14.505Z,2012.00
2023-02-08T09:29:14.365Z,2056.00
2023-02-08T09:30:14.491Z,2092.00
2023-02-08T09:31:14.572Z,2120.00
2023-02-08T09:32:14.439Z,2148.00
2023-02-08T09:33:14.524Z,2164.00
2023-02-08T09:34:14.412Z,2192.00
2023-02-08T09:35:14.548Z,2236.00
2023-02-08T09:36:14.436Z,2272.00
2023-02-08T09:37:14.574Z,2304.00
2023-02-08T09:38:14.453Z,2316.00
2023-02-08T09:39:14.469Z,2328.00
2023-02-08T09:40:14.476Z,2348.00
2023-02-08T09:41:14.622Z,2400.00
2023-02-08T09:42:14.512Z,2492.00
2023-02-08T09:43:14.652Z,2672.00
2023-02-08T09:44:14.530Z,2880.00
2023-02-08T09:45:14.677Z,3040.00
2023-02-08T09:46:14.682Z,3132.00
2023-02-08T09:47:14.700Z,3212.00
2023-02-08T09:48:14.600Z,3284.00
2023-02-08T09:49:14.722Z,3532.00
2023-02-08T09:50:14.597Z,4232.00
2023-02-08T09:51:14.746Z,3760.00
2023-02-08T09:52:14.755Z,3792.00
2023-02-08T09:53:14.766Z,3804.00
2023-02-08T09:54:14.672Z,3768.00
2023-02-08T09:55:14.795Z,4008.00
2023-02-08T09:56:14.679Z,4676.00
2023-02-08T09:57:14.819Z,5340.00
2023-02-08T09:58:14.698Z,5936.00
2023-02-08T09:59:14.747Z,7020.00
2023-02-08T10:00:14.720Z,10032.00
2023-02-08T10:01:14.914Z,12392.00
2023-02-08T10:02:14.877Z,18464.00
2023-02-08T10:03:14.896Z,42528.00
2023-02-08T10:04:14.776Z,48320.00
2023-02-08T10:05:14.805Z,50112.00
2023-02-08T10:06:14.796Z,35360.00
2023-02-08T10:07:14.940Z,43456.00
2023-02-08T10:08:14.817Z,48480.00
2023-02-08T10:09:14.965Z,49952.00
2023-02-08T10:10:14.984Z,38496.00
2023-02-08T10:11:14.989Z,33376.00
2023-02-08T10:12:14.895Z,27616.00
2023-02-08T10:13:15.019Z,19104.00
2023-02-08T10:14:14.902Z,17056.00
2023-02-08T10:15:15.046Z,15844.00
2023-02-08T10:16:14.966Z,15284.00
2023-02-08T10:17:15.076Z,14452.00
2023-02-08T10:18:14.997Z,13792.00
2023-02-08T10:19:14.996Z,13276.00
2023-02-08T10:20:15.119Z,12648.00
2023-02-08T10:21:15.157Z,12312.00
2023-02-08T10:22:15.016Z,12364.00
2023-02-08T10:23:16.706Z,13644.00
2023-02-08T10:24:15.073Z,15916.00
2023-02-08T10:25:15.063Z,20384.00
2023-02-08T10:26:15.077Z,29184.00
2023-02-08T10:27:15.217Z,24288.00
2023-02-08T10:28:15.158Z,20256.00
2023-02-08T10:29:15.129Z,20192.00
2023-02-08T10:30:15.268Z,19872.00
2023-02-08T10:31:15.417Z,19328.00
2023-02-08T10:32:15.166Z,19392.00
2023-02-08T10:33:15.304Z,18624.00
2023-02-08T10:34:15.234Z,16992.00
2023-02-08T10:35:15.333Z,15592.00
2023-02-08T10:36:15.212Z,15600.00
2023-02-08T10:37:15.364Z,16512.00
2023-02-08T10:38:15.248Z,17600.00
2023-02-08T10:39:15.259Z,19360.00
2023-02-08T10:40:15.281Z,19104.00
2023-02-08T10:41:15.425Z,18848.00
2023-02-08T10:42:15.306Z,19648.00
2023-02-08T10:43:15.459Z,20096.00
2023-02-08T10:44:15.343Z,20992.00
2023-02-08T10:45:23.971Z,22048.00
2023-02-08T10:46:15.473Z,20000.00
2023-02-08T10:47:15.518Z,18688.00
2023-02-08T10:48:15.397Z,18592.00
2023-02-08T10:49:15.568Z,19200.00
2023-02-08T10:50:15.432Z,19840.00
2023-02-08T10:51:15.601Z,21056.00
2023-02-08T10:52:15.614Z,21536.00
2023-02-08T10:53:15.616Z,22400.00
2023-02-08T10:54:15.500Z,25344.00
2023-02-08T10:55:15.513Z,43584.00
2023-02-08T10:56:15.535Z,61632.00
2023-02-08T10:57:15.544Z,68256.00
2023-02-08T10:58:15.554Z,69344.00
2023-02-08T10:59:15.702Z,58176.00
2023-02-08T11:00:15.597Z,41856.00
2023-02-08T11:01:15.749Z,69600.00
2023-02-08T11:02:15.613Z,67936.00
2023-02-08T11:03:15.763Z,67360.00
2023-02-08T11:04:15.829Z,69568.00
2023-02-08T11:05:15.801Z,69664.00
2023-02-08T11:06:15.702Z,69056.00
2023-02-08T11:07:15.709Z,71808.00
2023-02-08T11:08:15.713Z,71872.00
2023-02-08T11:09:15.866Z,32224.00
2023-02-08T11:10:15.912Z,62912.00
2023-02-08T11:11:15.902Z,25248.00
2023-02-08T11:12:15.795Z,21920.00
2023-02-08T11:13:15.941Z,24320.00
2023-02-08T11:14:15.955Z,65376.00
2023-02-08T11:15:15.859Z,70016.00
2023-02-08T11:16:15.998Z,71776.00
2023-02-08T11:17:16.010Z,70976.00
2023-02-08T11:18:15.918Z,68704.00
2023-02-08T11:19:16.046Z,67040.00
2023-02-08T11:20:16.029Z,67616.00
2023-02-08T11:21:15.946Z,69696.00
2023-02-08T11:22:15.966Z,49504.00
2023-02-08T11:23:16.121Z,46880.00
2023-02-08T11:24:16.014Z,64352.00
2023-02-08T11:25:16.041Z,68480.00
2023-02-08T11:26:16.046Z,68896.00
2023-02-08T11:27:16.202Z,69696.00
2023-02-08T11:28:16.181Z,70464.00
2023-02-08T11:29:16.242Z,73184.00
2023-02-08T11:30:16.265Z,71328.00
2023-02-08T11:31:16.317Z,72352.00
2023-02-08T11:32:16.171Z,72448.00
2023-02-08T11:33:16.319Z,73280.00
2023-02-08T11:34:16.338Z,71488.00
2023-02-08T11:35:16.256Z,65440.00
2023-02-08T11:36:16.265Z,36544.00
2023-02-08T11:37:16.285Z,35776.00
2023-02-08T11:38:16.291Z,70752.00
2023-02-08T11:39:16.442Z,73632.00
2023-02-08T11:40:16.349Z,73056.00
2023-02-08T11:41:16.349Z,72576.00
2023-02-08T11:42:16.505Z,72288.00
2023-02-08T11:43:16.526Z,73536.00
2023-02-08T11:44:16.549Z,76544.00
2023-02-08T11:45:16.585Z,78048.00
2023-02-08T11:46:16.500Z,77216.00
2023-02-08T11:47:16.620Z,76864.00
2023-02-08T11:48:16.502Z,74688.00
2023-02-08T11:49:16.653Z,76672.00
2023-02-08T11:50:16.563Z,74528.00
2023-02-08T11:51:16.707Z,76032.00
2023-02-08T11:52:16.605Z,77312.00
2023-02-08T11:53:16.739Z,77440.00
2023-02-08T11:54:16.763Z,76704.00
2023-02-08T11:55:16.786Z,77280.00
2023-02-08T11:56:16.688Z,77856.00
2023-02-08T11:57:16.718Z,57696.00
2023-02-08T11:58:16.718Z,69792.00
2023-02-08T11:59:16.872Z,70720.00
2023-02-08T12:00:16.764Z,72032.00
2023-02-08T12:01:16.928Z,74432.00
2023-02-08T12:02:16.866Z,74272.00
2023-02-08T12:03:16.906Z,75040.00
2023-02-08T12:04:16.853Z,74368.00
2023-02-08T12:05:17.006Z,75904.00
2023-02-08T12:06:16.920Z,77056.00
2023-02-08T12:07:17.052Z,74880.00
2023-02-08T12:08:16.968Z,70688.00
2023-02-08T12:09:16.988Z,77312.00
2023-02-08T12:10:16.986Z,75904.00
2023-02-08T12:11:17.146Z,71264.00
2023-02-08T12:12:17.059Z,71456.00
2023-02-08T12:13:17.191Z,70560.00
2023-02-08T12:14:17.079Z,70720.00
2023-02-08T12:15:17.238Z,75456.00
2023-02-08T12:16:17.291Z,76160.00
2023-02-08T12:17:17.183Z,76608.00
2023-02-08T12:18:17.306Z,75456.00
2023-02-08T12:19:17.251Z,74240.00
2023-02-08T12:20:17.244Z,74848.00
2023-02-08T12:21:17.263Z,72128.00
2023-02-08T12:22:17.413Z,41120.00
2023-02-08T12:23:17.428Z,53760.00
2023-02-08T12:24:17.460Z,45248.00
2023-02-08T12:25:17.338Z,26656.00
2023-02-08T12:26:17.576Z,46400.00
2023-02-08T12:27:17.399Z,27072.00
2023-02-08T12:28:17.560Z,29184.00
2023-02-08T12:29:17.578Z,32416.00
2023-02-08T12:30:17.478Z,65600.00
2023-02-08T12:31:17.593Z,60160.00
2023-02-08T12:32:17.513Z,65504.00
2023-02-08T12:33:17.524Z,66496.00
2023-02-08T12:34:17.711Z,70208.00
2023-02-08T12:35:24.160Z,70592.00
2023-02-08T12:36:17.733Z,64416.00
2023-02-08T12:37:17.620Z,68288.00
2023-02-08T12:38:17.769Z,71552.00
2023-02-08T12:39:20.191Z,70944.00
2023-02-08T12:40:17.809Z,68992.00
2023-02-08T12:41:17.754Z,68000.00
2023-02-08T12:42:17.741Z,52960.00
2023-02-08T12:43:17.752Z,49728.00
2023-02-08T12:44:17.901Z,54048.00
2023-02-08T12:45:17.929Z,54912.00
2023-02-08T12:46:18.038Z,62880.00
2023-02-08T12:47:17.844Z,63392.00
2023-02-08T12:48:17.993Z,65984.00
2023-02-08T12:49:17.893Z,64672.00
2023-02-08T12:50:18.051Z,61984.00